GMMZ

Ouarzazate Airport

Ouarzazate, Morocco
METAR GMMZ 231400Z 29003KT CAVOK 20/M05 Q1002 NOSIG
Observed Flight Rules
Feb-23 @ 14:00 UTC (32 minutes ago) Visual Flight Rules
Wind Visibility Clouds
290° at 3 knots 10,000+ meters
  • Clear skies
Temperatures Readings
Current 20°C / 68°F
Dewpoint -5°C / 23°F
Humidity 18%
Altimeter 29.59" Hg
Pressure 1002 hPa
Elevation 1140
METAR GMMZ 231400Z 29003KT CAVOK 20/M05 Q1002 NOSIG
Observed Flight Rules
Feb-23 @ 14:00 UTC
(32 minutes ago)
VFR
Wind Visibility
290° at 3 knots 10,000+ meters
Clouds
  • Clear skies
Temperature Dewpoint
20°C / 68°F -5°C / 23°F
Humidity Altimeter Pressure
18% 29.59" Hg 1002 hPa